sensor_id;sensor_type;location;lat;lon;timestamp;temperature;humidity
23405;DHT22;11875;49.356;2.718;2022-07-06T00:01:24;19.80;90.40
23405;DHT22;11875;49.356;2.718;2022-07-06T00:03:49;19.80;90.40
23405;DHT22;11875;49.356;2.718;2022-07-06T00:06:15;19.80;90.50
23405;DHT22;11875;49.356;2.718;2022-07-06T00:08:42;19.70;90.80
23405;DHT22;11875;49.356;2.718;2022-07-06T00:11:09;19.60;90.70
23405;DHT22;11875;49.356;2.718;2022-07-06T00:13:35;19.60;90.80
23405;DHT22;11875;49.356;2.718;2022-07-06T00:16:00;19.50;90.90
23405;DHT22;11875;49.356;2.718;2022-07-06T00:18:26;19.40;90.90
23405;DHT22;11875;49.356;2.718;2022-07-06T00:20:52;19.30;91.00
23405;DHT22;11875;49.356;2.718;2022-07-06T00:23:17;19.20;91.10
23405;DHT22;11875;49.356;2.718;2022-07-06T00:25:43;19.20;91.20
23405;DHT22;11875;49.356;2.718;2022-07-06T00:28:09;19.00;91.30
23405;DHT22;11875;49.356;2.718;2022-07-06T00:30:34;19.00;91.50
23405;DHT22;11875;49.356;2.718;2022-07-06T00:33:00;19.10;91.50
23405;DHT22;11875;49.356;2.718;2022-07-06T00:35:26;19.00;91.50
23405;DHT22;11875;49.356;2.718;2022-07-06T00:37:51;18.90;91.50
23405;DHT22;11875;49.356;2.718;2022-07-06T00:40:17;18.90;91.60
23405;DHT22;11875;49.356;2.718;2022-07-06T00:42:46;19.00;91.60
23405;DHT22;11875;49.356;2.718;2022-07-06T00:45:13;18.90;91.60
23405;DHT22;11875;49.356;2.718;2022-07-06T00:47:40;18.90;91.70
23405;DHT22;11875;49.356;2.718;2022-07-06T00:50:08;18.90;91.60
23405;DHT22;11875;49.356;2.718;2022-07-06T00:52:45;18.90;91.80
23405;DHT22;11875;49.356;2.718;2022-07-06T00:55:12;18.90;91.70
23405;DHT22;11875;49.356;2.718;2022-07-06T00:57:39;19.00;91.70
23405;DHT22;11875;49.356;2.718;2022-07-06T01:00:07;19.00;91.70
23405;DHT22;11875;49.356;2.718;2022-07-06T01:02:33;18.90;91.80
23405;DHT22;11875;49.356;2.718;2022-07-06T01:04:59;18.90;91.80
23405;DHT22;11875;49.356;2.718;2022-07-06T01:07:26;18.90;91.90
23405;DHT22;11875;49.356;2.718;2022-07-06T01:09:53;18.80;91.90
23405;DHT22;11875;49.356;2.718;2022-07-06T01:12:19;18.80;92.10
23405;DHT22;11875;49.356;2.718;2022-07-06T01:14:45;18.60;92.10
23405;DHT22;11875;49.356;2.718;2022-07-06T01:17:13;18.50;92.40
23405;DHT22;11875;49.356;2.718;2022-07-06T01:19:39;18.50;92.50
23405;DHT22;11875;49.356;2.718;2022-07-06T01:22:04;18.40;92.60
23405;DHT22;11875;49.356;2.718;2022-07-06T01:24:30;18.30;92.70
23405;DHT22;11875;49.356;2.718;2022-07-06T01:26:56;18.30;92.90
23405;DHT22;11875;49.356;2.718;2022-07-06T01:29:22;18.20;92.80
23405;DHT22;11875;49.356;2.718;2022-07-06T01:31:49;18.10;93.00
23405;DHT22;11875;49.356;2.718;2022-07-06T01:34:18;18.10;93.00
23405;DHT22;11875;49.356;2.718;2022-07-06T01:36:45;18.20;93.00
23405;DHT22;11875;49.356;2.718;2022-07-06T01:39:11;18.20;93.00
23405;DHT22;11875;49.356;2.718;2022-07-06T01:41:37;18.10;93.10
23405;DHT22;11875;49.356;2.718;2022-07-06T01:44:03;18.10;93.00
23405;DHT22;11875;49.356;2.718;2022-07-06T01:46:29;18.00;93.40
23405;DHT22;11875;49.356;2.718;2022-07-06T01:48:55;18.00;93.20
23405;DHT22;11875;49.356;2.718;2022-07-06T01:51:21;18.00;93.10
23405;DHT22;11875;49.356;2.718;2022-07-06T01:53:47;18.00;93.00
23405;DHT22;11875;49.356;2.718;2022-07-06T01:56:13;18.00;93.10
23405;DHT22;11875;49.356;2.718;2022-07-06T01:58:39;18.10;93.20
23405;DHT22;11875;49.356;2.718;2022-07-06T02:01:27;18.00;93.00
23405;DHT22;11875;49.356;2.718;2022-07-06T02:03:52;17.90;93.10
23405;DHT22;11875;49.356;2.718;2022-07-06T02:06:18;17.80;93.20
23405;DHT22;11875;49.356;2.718;2022-07-06T02:08:43;17.60;93.20
23405;DHT22;11875;49.356;2.718;2022-07-06T02:11:10;17.30;93.30
23405;DHT22;11875;49.356;2.718;2022-07-06T02:13:36;17.10;93.60
23405;DHT22;11875;49.356;2.718;2022-07-06T02:16:03;17.00;93.70
23405;DHT22;11875;49.356;2.718;2022-07-06T02:18:29;17.00;93.80
23405;DHT22;11875;49.356;2.718;2022-07-06T02:20:54;17.10;94.00
23405;DHT22;11875;49.356;2.718;2022-07-06T02:23:20;17.10;93.90
23405;DHT22;11875;49.356;2.718;2022-07-06T02:25:46;16.90;94.10
23405;DHT22;11875;49.356;2.718;2022-07-06T02:28:11;16.70;94.30
23405;DHT22;11875;49.356;2.718;2022-07-06T02:30:37;16.70;94.40
23405;DHT22;11875;49.356;2.718;2022-07-06T02:33:03;16.80;94.50
23405;DHT22;11875;49.356;2.718;2022-07-06T02:35:28;16.90;94.20
23405;DHT22;11875;49.356;2.718;2022-07-06T02:37:54;16.90;94.20
23405;DHT22;11875;49.356;2.718;2022-07-06T02:40:20;16.90;94.20
23405;DHT22;11875;49.356;2.718;2022-07-06T02:42:45;16.80;94.30
23405;DHT22;11875;49.356;2.718;2022-07-06T02:45:11;16.80;94.40
23405;DHT22;11875;49.356;2.718;2022-07-06T02:47:37;16.90;94.40
23405;DHT22;11875;49.356;2.718;2022-07-06T02:50:04;17.00;94.40
23405;DHT22;11875;49.356;2.718;2022-07-06T02:52:30;17.00;94.30
23405;DHT22;11875;49.356;2.718;2022-07-06T02:54:56;17.00;94.30
23405;DHT22;11875;49.356;2.718;2022-07-06T02:57:21;17.00;94.30
23405;DHT22;11875;49.356;2.718;2022-07-06T02:59:47;16.90;94.50
23405;DHT22;11875;49.356;2.718;2022-07-06T03:02:15;16.80;94.30
23405;DHT22;11875;49.356;2.718;2022-07-06T03:04:41;16.80;94.30
23405;DHT22;11875;49.356;2.718;2022-07-06T03:07:07;16.60;94.40
23405;DHT22;11875;49.356;2.718;2022-07-06T03:09:32;16.60;94.50
23405;DHT22;11875;49.356;2.718;2022-07-06T03:11:58;16.70;94.50
23405;DHT22;11875;49.356;2.718;2022-07-06T03:14:24;16.70;94.70
23405;DHT22;11875;49.356;2.718;2022-07-06T03:16:50;16.70;94.60
23405;DHT22;11875;49.356;2.718;2022-07-06T03:19:16;16.80;94.60
23405;DHT22;11875;49.356;2.718;2022-07-06T03:21:43;16.80;94.60
23405;DHT22;11875;49.356;2.718;2022-07-06T03:24:09;16.70;94.60
23405;DHT22;11875;49.356;2.718;2022-07-06T03:26:34;16.70;94.80
23405;DHT22;11875;49.356;2.718;2022-07-06T03:29:00;16.70;94.80
23405;DHT22;11875;49.356;2.718;2022-07-06T03:31:26;16.80;94.80
23405;DHT22;11875;49.356;2.718;2022-07-06T03:33:52;16.70;94.60
23405;DHT22;11875;49.356;2.718;2022-07-06T03:36:17;16.70;94.80
23405;DHT22;11875;49.356;2.718;2022-07-06T03:38:43;16.70;94.90
23405;DHT22;11875;49.356;2.718;2022-07-06T03:41:09;16.60;94.90
23405;DHT22;11875;49.356;2.718;2022-07-06T03:43:34;16.60;95.10
23405;DHT22;11875;49.356;2.718;2022-07-06T03:46:00;16.60;95.10
23405;DHT22;11875;49.356;2.718;2022-07-06T03:48:26;16.60;95.10
23405;DHT22;11875;49.356;2.718;2022-07-06T03:50:52;16.50;95.00
23405;DHT22;11875;49.356;2.718;2022-07-06T03:53:17;16.50;95.20
23405;DHT22;11875;49.356;2.718;2022-07-06T03:55:43;16.50;95.20
23405;DHT22;11875;49.356;2.718;2022-07-06T03:58:29;16.40;95.10
23405;DHT22;11875;49.356;2.718;2022-07-06T04:00:54;16.40;94.90
23405;DHT22;11875;49.356;2.718;2022-07-06T04:03:20;16.40;94.90
23405;DHT22;11875;49.356;2.718;2022-07-06T04:05:46;16.40;95.00
23405;DHT22;11875;49.356;2.718;2022-07-06T04:08:11;16.30;95.00
23405;DHT22;11875;49.356;2.718;2022-07-06T04:10:37;16.30;95.00
23405;DHT22;11875;49.356;2.718;2022-07-06T04:13:02;16.20;94.90
23405;DHT22;11875;49.356;2.718;2022-07-06T04:15:28;16.20;94.80
23405;DHT22;11875;49.356;2.718;2022-07-06T04:17:53;16.20;94.70
23405;DHT22;11875;49.356;2.718;2022-07-06T04:20:23;16.20;94.40
23405;DHT22;11875;49.356;2.718;2022-07-06T04:22:50;16.20;94.40
23405;DHT22;11875;49.356;2.718;2022-07-06T04:25:16;16.20;94.60
23405;DHT22;11875;49.356;2.718;2022-07-06T04:27:42;16.20;94.80
23405;DHT22;11875;49.356;2.718;2022-07-06T04:30:08;16.20;95.00
23405;DHT22;11875;49.356;2.718;2022-07-06T04:32:35;16.20;94.90
23405;DHT22;11875;49.356;2.718;2022-07-06T04:35:01;16.20;94.40
23405;DHT22;11875;49.356;2.718;2022-07-06T04:37:27;16.10;94.30
23405;DHT22;11875;49.356;2.718;2022-07-06T04:39:52;16.10;94.40
23405;DHT22;11875;49.356;2.718;2022-07-06T04:42:18;16.00;94.70
23405;DHT22;11875;49.356;2.718;2022-07-06T04:44:44;15.90;94.40
23405;DHT22;11875;49.356;2.718;2022-07-06T04:47:11;15.90;94.60
23405;DHT22;11875;49.356;2.718;2022-07-06T04:49:37;15.90;94.80
23405;DHT22;11875;49.356;2.718;2022-07-06T04:52:03;16.00;95.20
23405;DHT22;11875;49.356;2.718;2022-07-06T04:54:28;16.00;95.30
23405;DHT22;11875;49.356;2.718;2022-07-06T04:56:54;16.00;95.40
23405;DHT22;11875;49.356;2.718;2022-07-06T04:59:19;15.90;95.80
23405;DHT22;11875;49.356;2.718;2022-07-06T05:01:45;15.90;95.90
23405;DHT22;11875;49.356;2.718;2022-07-06T05:04:11;15.90;96.10
23405;DHT22;11875;49.356;2.718;2022-07-06T05:06:36;15.90;96.30
23405;DHT22;11875;49.356;2.718;2022-07-06T05:09:02;16.00;96.50
23405;DHT22;11875;49.356;2.718;2022-07-06T05:11:28;15.90;96.40
23405;DHT22;11875;49.356;2.718;2022-07-06T05:13:54;15.90;96.70
23405;DHT22;11875;49.356;2.718;2022-07-06T05:16:20;15.80;96.80
23405;DHT22;11875;49.356;2.718;2022-07-06T05:18:46;15.70;97.50
23405;DHT22;11875;49.356;2.718;2022-07-06T05:21:11;15.70;97.50
23405;DHT22;11875;49.356;2.718;2022-07-06T05:23:37;15.80;97.80
23405;DHT22;11875;49.356;2.718;2022-07-06T05:26:03;15.80;97.90
23405;DHT22;11875;49.356;2.718;2022-07-06T05:28:28;15.90;98.10
23405;DHT22;11875;49.356;2.718;2022-07-06T05:30:54;15.90;98.00
23405;DHT22;11875;49.356;2.718;2022-07-06T05:33:19;16.10;98.20
23405;DHT22;11875;49.356;2.718;2022-07-06T05:35:45;16.20;98.20
23405;DHT22;11875;49.356;2.718;2022-07-06T05:38:11;16.30;98.40
23405;DHT22;11875;49.356;2.718;2022-07-06T05:40:37;16.30;98.20
23405;DHT22;11875;49.356;2.718;2022-07-06T05:43:02;16.20;98.10
23405;DHT22;11875;49.356;2.718;2022-07-06T05:45:28;16.20;98.10
23405;DHT22;11875;49.356;2.718;2022-07-06T05:47:54;16.20;98.30
23405;DHT22;11875;49.356;2.718;2022-07-06T05:50:39;16.30;98.50
23405;DHT22;11875;49.356;2.718;2022-07-06T05:53:05;16.40;98.40
23405;DHT22;11875;49.356;2.718;2022-07-06T05:55:32;16.40;98.60
23405;DHT22;11875;49.356;2.718;2022-07-06T05:57:58;16.50;98.40
23405;DHT22;11875;49.356;2.718;2022-07-06T06:00:24;16.40;98.60
23405;DHT22;11875;49.356;2.718;2022-07-06T06:02:51;16.40;99.00
23405;DHT22;11875;49.356;2.718;2022-07-06T06:05:17;16.50;98.90
23405;DHT22;11875;49.356;2.718;2022-07-06T06:07:43;16.60;99.10
23405;DHT22;11875;49.356;2.718;2022-07-06T06:10:12;16.70;99.30
23405;DHT22;11875;49.356;2.718;2022-07-06T06:12:39;16.50;99.30
23405;DHT22;11875;49.356;2.718;2022-07-06T06:15:06;16.60;99.60
23405;DHT22;11875;49.356;2.718;2022-07-06T06:17:32;16.70;99.50
23405;DHT22;11875;49.356;2.718;2022-07-06T06:19:58;16.90;99.50
23405;DHT22;11875;49.356;2.718;2022-07-06T06:22:24;17.00;99.60
23405;DHT22;11875;49.356;2.718;2022-07-06T06:24:49;17.20;99.60
23405;DHT22;11875;49.356;2.718;2022-07-06T06:27:15;17.10;99.50
23405;DHT22;11875;49.356;2.718;2022-07-06T06:29:41;17.10;99.70
23405;DHT22;11875;49.356;2.718;2022-07-06T06:32:07;17.20;99.80
23405;DHT22;11875;49.356;2.718;2022-07-06T06:34:33;17.20;99.80
23405;DHT22;11875;49.356;2.718;2022-07-06T06:36:59;17.10;99.90
23405;DHT22;11875;49.356;2.718;2022-07-06T06:39:25;17.00;99.90
23405;DHT22;11875;49.356;2.718;2022-07-06T06:41:50;16.90;99.90
23405;DHT22;11875;49.356;2.718;2022-07-06T06:44:16;17.00;99.90
23405;DHT22;11875;49.356;2.718;2022-07-06T06:46:43;17.20;99.90
23405;DHT22;11875;49.356;2.718;2022-07-06T06:49:09;17.20;99.90
23405;DHT22;11875;49.356;2.718;2022-07-06T06:51:35;17.30;99.90
23405;DHT22;11875;49.356;2.718;2022-07-06T06:54:03;17.40;99.90
23405;DHT22;11875;49.356;2.718;2022-07-06T06:56:28;17.50;99.90
23405;DHT22;11875;49.356;2.718;2022-07-06T06:58:54;17.40;99.40
23405;DHT22;11875;49.356;2.718;2022-07-06T07:01:20;17.70;99.30
23405;DHT22;11875;49.356;2.718;2022-07-06T07:03:45;17.80;98.90
23405;DHT22;11875;49.356;2.718;2022-07-06T07:06:11;18.00;98.80
23405;DHT22;11875;49.356;2.718;2022-07-06T07:08:37;18.30;98.60
23405;DHT22;11875;49.356;2.718;2022-07-06T07:11:02;18.50;99.00
23405;DHT22;11875;49.356;2.718;2022-07-06T07:13:28;18.80;99.90
23405;DHT22;11875;49.356;2.718;2022-07-06T07:15:53;19.10;99.20
23405;DHT22;11875;49.356;2.718;2022-07-06T07:18:19;19.70;98.50
23405;DHT22;11875;49.356;2.718;2022-07-06T07:20:44;20.10;97.50
23405;DHT22;11875;49.356;2.718;2022-07-06T07:23:10;20.60;96.30
23405;DHT22;11875;49.356;2.718;2022-07-06T07:25:36;21.00;96.20
23405;DHT22;11875;49.356;2.718;2022-07-06T07:28:04;21.20;94.90
23405;DHT22;11875;49.356;2.718;2022-07-06T07:30:29;21.70;94.60
23405;DHT22;11875;49.356;2.718;2022-07-06T07:32:55;22.00;93.50
23405;DHT22;11875;49.356;2.718;2022-07-06T07:35:22;22.20;92.10
23405;DHT22;11875;49.356;2.718;2022-07-06T07:37:47;22.50;90.20
23405;DHT22;11875;49.356;2.718;2022-07-06T07:40:13;22.60;90.80
23405;DHT22;11875;49.356;2.718;2022-07-06T07:42:38;22.60;90.60
23405;DHT22;11875;49.356;2.718;2022-07-06T07:45:07;22.70;89.40
23405;DHT22;11875;49.356;2.718;2022-07-06T07:47:33;22.90;87.70
23405;DHT22;11875;49.356;2.718;2022-07-06T07:49:59;23.00;88.00
23405;DHT22;11875;49.356;2.718;2022-07-06T07:52:25;23.00;86.70
23405;DHT22;11875;49.356;2.718;2022-07-06T07:54:50;23.20;86.50
23405;DHT22;11875;49.356;2.718;2022-07-06T07:57:16;23.30;84.50
23405;DHT22;11875;49.356;2.718;2022-07-06T07:59:42;23.40;84.20
23405;DHT22;11875;49.356;2.718;2022-07-06T08:02:08;23.50;84.40
23405;DHT22;11875;49.356;2.718;2022-07-06T08:04:33;23.60;84.20
23405;DHT22;11875;49.356;2.718;2022-07-06T08:06:59;23.50;84.40
23405;DHT22;11875;49.356;2.718;2022-07-06T08:09:25;23.40;84.30
23405;DHT22;11875;49.356;2.718;2022-07-06T08:11:50;23.30;84.20
23405;DHT22;11875;49.356;2.718;2022-07-06T08:14:16;23.30;84.50
23405;DHT22;11875;49.356;2.718;2022-07-06T08:16:42;23.50;84.80
23405;DHT22;11875;49.356;2.718;2022-07-06T08:19:07;23.60;85.20
23405;DHT22;11875;49.356;2.718;2022-07-06T08:21:33;23.70;84.50
23405;DHT22;11875;49.356;2.718;2022-07-06T08:23:59;23.80;84.30
23405;DHT22;11875;49.356;2.718;2022-07-06T08:26:26;23.80;84.30
23405;DHT22;11875;49.356;2.718;2022-07-06T08:28:51;23.90;83.90
23405;DHT22;11875;49.356;2.718;2022-07-06T08:31:18;24.00;83.90
23405;DHT22;11875;49.356;2.718;2022-07-06T08:33:43;24.00;84.50
23405;DHT22;11875;49.356;2.718;2022-07-06T08:36:09;24.10;83.70
23405;DHT22;11875;49.356;2.718;2022-07-06T08:38:35;24.20;84.20
23405;DHT22;11875;49.356;2.718;2022-07-06T08:41:01;24.30;84.00
23405;DHT22;11875;49.356;2.718;2022-07-06T08:43:27;24.40;84.30
23405;DHT22;11875;49.356;2.718;2022-07-06T08:45:53;24.50;84.10
23405;DHT22;11875;49.356;2.718;2022-07-06T08:48:22;24.60;83.40
23405;DHT22;11875;49.356;2.718;2022-07-06T08:50:48;24.70;83.80
23405;DHT22;11875;49.356;2.718;2022-07-06T08:53:18;24.80;84.10
23405;DHT22;11875;49.356;2.718;2022-07-06T08:55:44;24.90;82.50
23405;DHT22;11875;49.356;2.718;2022-07-06T08:58:09;25.00;82.80
23405;DHT22;11875;49.356;2.718;2022-07-06T09:00:36;25.10;83.10
23405;DHT22;11875;49.356;2.718;2022-07-06T09:03:01;25.30;83.00
23405;DHT22;11875;49.356;2.718;2022-07-06T09:05:28;25.30;82.90
23405;DHT22;11875;49.356;2.718;2022-07-06T09:07:56;25.30;83.10
23405;DHT22;11875;49.356;2.718;2022-07-06T09:10:22;25.30;82.40
23405;DHT22;11875;49.356;2.718;2022-07-06T09:12:48;25.20;82.50
23405;DHT22;11875;49.356;2.718;2022-07-06T09:15:14;25.30;83.30
23405;DHT22;11875;49.356;2.718;2022-07-06T09:17:42;25.40;82.10
23405;DHT22;11875;49.356;2.718;2022-07-06T09:20:10;25.70;82.10
23405;DHT22;11875;49.356;2.718;2022-07-06T09:22:36;25.80;81.10
23405;DHT22;11875;49.356;2.718;2022-07-06T09:25:11;25.80;82.10
23405;DHT22;11875;49.356;2.718;2022-07-06T09:27:39;26.00;81.50
23405;DHT22;11875;49.356;2.718;2022-07-06T09:30:07;26.10;80.40
23405;DHT22;11875;49.356;2.718;2022-07-06T09:32:38;26.10;80.70
23405;DHT22;11875;49.356;2.718;2022-07-06T09:35:05;26.00;80.60
23405;DHT22;11875;49.356;2.718;2022-07-06T09:37:30;25.90;81.20
23405;DHT22;11875;49.356;2.718;2022-07-06T09:39:56;25.90;81.50
23405;DHT22;11875;49.356;2.718;2022-07-06T09:42:25;25.90;80.70
23405;DHT22;11875;49.356;2.718;2022-07-06T09:44:52;25.60;81.00
23405;DHT22;11875;49.356;2.718;2022-07-06T09:47:18;25.60;80.70
23405;DHT22;11875;49.356;2.718;2022-07-06T09:49:45;25.50;81.80
23405;DHT22;11875;49.356;2.718;2022-07-06T09:52:13;25.40;82.60
23405;DHT22;11875;49.356;2.718;2022-07-06T09:54:39;25.40;81.30
23405;DHT22;11875;49.356;2.718;2022-07-06T09:57:07;25.40;81.40
23405;DHT22;11875;49.356;2.718;2022-07-06T09:59:34;25.20;82.80
23405;DHT22;11875;49.356;2.718;2022-07-06T10:02:05;24.90;82.50
23405;DHT22;11875;49.356;2.718;2022-07-06T10:04:32;25.00;82.50
23405;DHT22;11875;49.356;2.718;2022-07-06T10:06:59;25.10;82.70
23405;DHT22;11875;49.356;2.718;2022-07-06T10:09:26;25.30;82.40
23405;DHT22;11875;49.356;2.718;2022-07-06T10:12:02;25.40;82.30
23405;DHT22;11875;49.356;2.718;2022-07-06T10:14:32;25.60;82.10
23405;DHT22;11875;49.356;2.718;2022-07-06T10:17:01;25.90;81.50
23405;DHT22;11875;49.356;2.718;2022-07-06T10:19:28;26.20;79.60
23405;DHT22;11875;49.356;2.718;2022-07-06T10:21:56;26.30;78.40
23405;DHT22;11875;49.356;2.718;2022-07-06T10:24:24;26.20;77.20
23405;DHT22;11875;49.356;2.718;2022-07-06T10:26:50;26.20;78.10
23405;DHT22;11875;49.356;2.718;2022-07-06T10:29:16;26.20;78.00
23405;DHT22;11875;49.356;2.718;2022-07-06T10:31:45;26.10;77.80
23405;DHT22;11875;49.356;2.718;2022-07-06T10:34:12;26.00;80.00
23405;DHT22;11875;49.356;2.718;2022-07-06T10:36:40;25.90;78.70
23405;DHT22;11875;49.356;2.718;2022-07-06T10:39:07;25.80;79.00
23405;DHT22;11875;49.356;2.718;2022-07-06T10:41:51;25.90;79.20
23405;DHT22;11875;49.356;2.718;2022-07-06T10:44:21;26.10;79.20
23405;DHT22;11875;49.356;2.718;2022-07-06T10:46:54;26.30;79.10
23405;DHT22;11875;49.356;2.718;2022-07-06T10:49:22;26.40;78.10
23405;DHT22;11875;49.356;2.718;2022-07-06T10:51:48;26.80;78.00
23405;DHT22;11875;49.356;2.718;2022-07-06T10:54:16;26.60;77.50
23405;DHT22;11875;49.356;2.718;2022-07-06T10:56:45;26.70;76.40
23405;DHT22;11875;49.356;2.718;2022-07-06T10:59:15;26.90;75.70
23405;DHT22;11875;49.356;2.718;2022-07-06T11:02:17;27.00;74.30
23405;DHT22;11875;49.356;2.718;2022-07-06T11:04:44;27.10;74.20
23405;DHT22;11875;49.356;2.718;2022-07-06T11:07:18;27.20;73.30
23405;DHT22;11875;49.356;2.718;2022-07-06T11:09:58;27.10;72.70
23405;DHT22;11875;49.356;2.718;2022-07-06T11:12:24;27.10;73.20
23405;DHT22;11875;49.356;2.718;2022-07-06T11:14:51;27.10;73.80
23405;DHT22;11875;49.356;2.718;2022-07-06T11:17:18;27.20;70.10
23405;DHT22;11875;49.356;2.718;2022-07-06T11:19:58;27.20;69.80
23405;DHT22;11875;49.356;2.718;2022-07-06T11:22:36;27.20;69.90
23405;DHT22;11875;49.356;2.718;2022-07-06T11:25:03;27.20;68.80
23405;DHT22;11875;49.356;2.718;2022-07-06T11:27:29;27.20;70.00
23405;DHT22;11875;49.356;2.718;2022-07-06T11:29:55;27.30;70.40
23405;DHT22;11875;49.356;2.718;2022-07-06T11:32:25;27.30;70.60
23405;DHT22;11875;49.356;2.718;2022-07-06T11:34:51;27.40;70.00
23405;DHT22;11875;49.356;2.718;2022-07-06T11:37:17;27.60;69.60
23405;DHT22;11875;49.356;2.718;2022-07-06T11:39:44;27.70;69.60
23405;DHT22;11875;49.356;2.718;2022-07-06T11:42:12;27.70;68.70
23405;DHT22;11875;49.356;2.718;2022-07-06T11:44:39;27.60;69.00
23405;DHT22;11875;49.356;2.718;2022-07-06T11:47:06;27.60;69.70
23405;DHT22;11875;49.356;2.718;2022-07-06T11:49:33;27.60;69.10
23405;DHT22;11875;49.356;2.718;2022-07-06T11:52:06;27.70;68.70
23405;DHT22;11875;49.356;2.718;2022-07-06T11:54:33;27.80;69.40
23405;DHT22;11875;49.356;2.718;2022-07-06T11:56:59;27.80;69.30
23405;DHT22;11875;49.356;2.718;2022-07-06T12:02:03;27.70;68.60
23405;DHT22;11875;49.356;2.718;2022-07-06T12:04:30;27.80;67.70
23405;DHT22;11875;49.356;2.718;2022-07-06T12:07:01;28.00;67.50
23405;DHT22;11875;49.356;2.718;2022-07-06T12:09:30;28.10;66.40
23405;DHT22;11875;49.356;2.718;2022-07-06T12:11:56;27.80;67.30
23405;DHT22;11875;49.356;2.718;2022-07-06T12:14:22;27.60;68.50
23405;DHT22;11875;49.356;2.718;2022-07-06T12:16:49;27.60;68.80
23405;DHT22;11875;49.356;2.718;2022-07-06T12:19:15;27.60;67.80
23405;DHT22;11875;49.356;2.718;2022-07-06T12:21:49;27.70;66.40
23405;DHT22;11875;49.356;2.718;2022-07-06T12:24:26;27.70;67.30
23405;DHT22;11875;49.356;2.718;2022-07-06T12:27:09;27.90;66.70
23405;DHT22;11875;49.356;2.718;2022-07-06T12:29:34;28.00;66.80
23405;DHT22;11875;49.356;2.718;2022-07-06T12:32:00;28.20;66.20
23405;DHT22;11875;49.356;2.718;2022-07-06T12:34:28;28.30;67.00
23405;DHT22;11875;49.356;2.718;2022-07-06T12:37:06;28.30;66.10
23405;DHT22;11875;49.356;2.718;2022-07-06T12:39:39;28.10;67.00
23405;DHT22;11875;49.356;2.718;2022-07-06T12:42:05;28.10;66.40
23405;DHT22;11875;49.356;2.718;2022-07-06T12:44:32;27.90;67.30
23405;DHT22;11875;49.356;2.718;2022-07-06T12:47:05;28.00;68.30
23405;DHT22;11875;49.356;2.718;2022-07-06T12:49:32;28.10;67.70
23405;DHT22;11875;49.356;2.718;2022-07-06T12:57:10;28.50;65.80
23405;DHT22;11875;49.356;2.718;2022-07-06T12:59:55;28.50;66.30
23405;DHT22;11875;49.356;2.718;2022-07-06T13:02:31;28.40;66.10
23405;DHT22;11875;49.356;2.718;2022-07-06T13:04:59;28.30;64.60
23405;DHT22;11875;49.356;2.718;2022-07-06T13:07:26;28.30;64.60
23405;DHT22;11875;49.356;2.718;2022-07-06T13:09:54;28.40;64.10
23405;DHT22;11875;49.356;2.718;2022-07-06T13:12:20;28.40;64.20
23405;DHT22;11875;49.356;2.718;2022-07-06T13:14:46;28.50;64.00
23405;DHT22;11875;49.356;2.718;2022-07-06T13:17:11;28.60;64.40
23405;DHT22;11875;49.356;2.718;2022-07-06T13:19:37;28.70;63.00
23405;DHT22;11875;49.356;2.718;2022-07-06T13:22:03;28.60;62.40
23405;DHT22;11875;49.356;2.718;2022-07-06T13:24:29;28.50;60.90
23405;DHT22;11875;49.356;2.718;2022-07-06T13:26:58;28.60;63.30
23405;DHT22;11875;49.356;2.718;2022-07-06T13:29:24;28.60;64.00
23405;DHT22;11875;49.356;2.718;2022-07-06T13:31:49;28.70;63.50
23405;DHT22;11875;49.356;2.718;2022-07-06T13:34:15;28.80;63.80
23405;DHT22;11875;49.356;2.718;2022-07-06T13:36:41;28.70;64.20
23405;DHT22;11875;49.356;2.718;2022-07-06T13:39:07;28.80;63.10
23405;DHT22;11875;49.356;2.718;2022-07-06T13:41:33;28.80;62.50
23405;DHT22;11875;49.356;2.718;2022-07-06T13:44:00;28.70;61.60
23405;DHT22;11875;49.356;2.718;2022-07-06T13:46:29;28.80;62.70
23405;DHT22;11875;49.356;2.718;2022-07-06T13:48:55;28.70;61.40
23405;DHT22;11875;49.356;2.718;2022-07-06T13:51:22;28.60;60.10
23405;DHT22;11875;49.356;2.718;2022-07-06T13:53:47;28.70;60.30
23405;DHT22;11875;49.356;2.718;2022-07-06T13:56:13;28.80;59.90
23405;DHT22;11875;49.356;2.718;2022-07-06T13:58:39;28.80;59.50
23405;DHT22;11875;49.356;2.718;2022-07-06T14:01:05;28.80;59.30
23405;DHT22;11875;49.356;2.718;2022-07-06T14:03:30;28.70;59.40
23405;DHT22;11875;49.356;2.718;2022-07-06T14:06:00;28.80;59.60
23405;DHT22;11875;49.356;2.718;2022-07-06T14:08:27;28.80;59.40
23405;DHT22;11875;49.356;2.718;2022-07-06T14:10:54;28.70;59.30
23405;DHT22;11875;49.356;2.718;2022-07-06T14:13:21;28.60;59.80
23405;DHT22;11875;49.356;2.718;2022-07-06T14:15:47;28.70;60.70
23405;DHT22;11875;49.356;2.718;2022-07-06T14:18:12;28.80;62.20
23405;DHT22;11875;49.356;2.718;2022-07-06T14:20:40;28.70;62.60
23405;DHT22;11875;49.356;2.718;2022-07-06T14:23:05;28.80;62.30
23405;DHT22;11875;49.356;2.718;2022-07-06T14:25:31;28.80;62.70
23405;DHT22;11875;49.356;2.718;2022-07-06T14:27:57;29.00;62.80
23405;DHT22;11875;49.356;2.718;2022-07-06T14:30:23;29.00;63.00
23405;DHT22;11875;49.356;2.718;2022-07-06T14:32:49;29.00;63.30
23405;DHT22;11875;49.356;2.718;2022-07-06T14:35:14;29.00;62.30
23405;DHT22;11875;49.356;2.718;2022-07-06T14:37:40;28.90;62.50
23405;DHT22;11875;49.356;2.718;2022-07-06T14:40:06;28.90;62.60
23405;DHT22;11875;49.356;2.718;2022-07-06T14:42:32;28.90;63.80
23405;DHT22;11875;49.356;2.718;2022-07-06T14:44:57;28.90;64.00
23405;DHT22;11875;49.356;2.718;2022-07-06T14:47:23;28.90;64.30
23405;DHT22;11875;49.356;2.718;2022-07-06T14:49:48;29.00;64.10
23405;DHT22;11875;49.356;2.718;2022-07-06T14:52:16;29.10;63.70
23405;DHT22;11875;49.356;2.718;2022-07-06T14:54:41;29.10;63.80
23405;DHT22;11875;49.356;2.718;2022-07-06T14:57:07;29.20;63.10
23405;DHT22;11875;49.356;2.718;2022-07-06T14:59:34;29.10;63.20
23405;DHT22;11875;49.356;2.718;2022-07-06T15:02:00;29.00;63.60
23405;DHT22;11875;49.356;2.718;2022-07-06T15:04:26;29.10;62.80
23405;DHT22;11875;49.356;2.718;2022-07-06T15:06:51;29.20;63.00
23405;DHT22;11875;49.356;2.718;2022-07-06T15:09:17;29.20;63.60
23405;DHT22;11875;49.356;2.718;2022-07-06T15:11:42;29.10;63.60
23405;DHT22;11875;49.356;2.718;2022-07-06T15:14:10;29.10;63.50
23405;DHT22;11875;49.356;2.718;2022-07-06T15:16:36;29.10;64.00
23405;DHT22;11875;49.356;2.718;2022-07-06T15:19:02;29.20;64.20
23405;DHT22;11875;49.356;2.718;2022-07-06T15:21:28;29.20;63.80
23405;DHT22;11875;49.356;2.718;2022-07-06T15:23:53;29.10;64.00
23405;DHT22;11875;49.356;2.718;2022-07-06T15:26:19;29.00;63.50
23405;DHT22;11875;49.356;2.718;2022-07-06T15:28:44;29.10;63.90
23405;DHT22;11875;49.356;2.718;2022-07-06T15:31:10;29.10;62.90
23405;DHT22;11875;49.356;2.718;2022-07-06T15:33:35;29.00;63.40
23405;DHT22;11875;49.356;2.718;2022-07-06T15:36:01;29.00;63.10